This is the latest recevied weather packets stored in our database for station/object K0CVS. If no packets are shown the sender has not sent any weather packets the latest 10 day(s).
| Time | Temp. | Humidity | Pressure | Rain* | Wind** | Luminosity | Snow |
|---|---|---|---|---|---|---|---|
| 1778005791 | 8.89° C | 89% | 1012.7 hPa | 0 mm | - | 114 W/m² | - |
| 1778005488 | 8.89° C | 88% | 1012.7 hPa | 0 mm | - | 113 W/m² | - |
| 1778005184 | 8.89° C | 87% | 1013.1 hPa | 0 mm | - | 87 W/m² | - |
| 1778004882 | 8.89° C | 87% | 1013 hPa | 0 mm | - | 120 W/m² | - |
| 1778004579 | 8.89° C | 87% | 1013 hPa | 0 mm | - | 110 W/m² | - |
| 1778004275 | 8.89° C | 88% | 1013.2 hPa | 0 mm | - | 97 W/m² | - |
| 1778003972 | 8.89° C | 89% | 1013.1 hPa | 0 mm | - | 80 W/m² | - |
| 1778003668 | 8.89° C | 88% | 1013.1 hPa | 1.78 mm | - | 69 W/m² | - |
| 1778003364 | 8.33° C | 88% | 1013.1 hPa | 1.78 mm | - | 88 W/m² | - |
| 1778003062 | 8.33° C | 87% | 1013.4 hPa | 0 mm | - | 80 W/m² | - |
| 1778002758 | 8.33° C | 87% | 1013.2 hPa | 0 mm | - | 67 W/m² | - |
| 1778002454 | 8.33° C | 87% | 1013.2 hPa | 0 mm | - | 57 W/m² | - |
| 1778002151 | 8.33° C | 88% | 1013.1 hPa | 0 mm | - | 64 W/m² | - |
| 1778001849 | 8.89° C | 88% | 1013.2 hPa | 0 mm | - | 73 W/m² | - |
| 1778001549 | 8.33° C | 88% | 1013 hPa | 0 mm | - | 119 W/m² | - |
| 1778001246 | 8.33° C | 88% | 1013.1 hPa | 0 mm | - | 128 W/m² | - |
| 1778000942 | 8.33° C | 89% | 1013.4 hPa | 0 mm | - | 99 W/m² | - |
| 1778000639 | 8.33° C | 88% | 1013.1 hPa | 0 mm | - | 87 W/m² | - |
| 1778000334 | 8.33° C | 89% | 1013.1 hPa | 0 mm | - | 56 W/m² | - |
| 1778000030 | 8.33° C | 88% | 1012.7 hPa | 0 mm | - | 79 W/m² | - |
| 1777999726 | 8.33° C | 89% | 1012.9 hPa | 0 mm | - | 96 W/m² | - |
| 1777999423 | 8.33° C | 89% | 1013.1 hPa | 0 mm | - | 59 W/m² | - |
| 1777999121 | 8.33° C | 90% | 1012.7 hPa | 0 mm | - | 124 W/m² | - |
| 1777998820 | 8.33° C | 90% | 1012.8 hPa | 0 mm | - | 125 W/m² | - |
| 1777998518 | 7.78° C | 90% | 1013 hPa | 0 mm | - | 77 W/m² | - |
* Rain latest hour (hover to see other rain measurements)
** Current wind speed in m/s (hover to see current wind gust speed)